createdAt,value
2019-02-02T00:00:01.877Z,5.57
2019-02-02T00:02:29.330Z,5.80
2019-02-02T00:04:56.971Z,5.57
2019-02-02T00:07:24.872Z,6.50
2019-02-02T00:10:10.429Z,6.70
2019-02-02T00:12:38.139Z,6.17
2019-02-02T00:15:06.178Z,6.17
2019-02-02T00:17:33.874Z,6.90
2019-02-02T00:20:01.740Z,6.33
2019-02-02T00:22:29.320Z,7.37
2019-02-02T00:24:56.914Z,7.03
2019-02-02T00:27:24.432Z,7.60
2019-02-02T00:29:52.000Z,7.13
2019-02-02T00:32:19.868Z,7.20
2019-02-02T00:34:47.701Z,7.63
2019-02-02T00:37:15.440Z,6.73
2019-02-02T00:39:45.799Z,6.60
2019-02-02T00:42:13.198Z,6.20
2019-02-02T00:44:42.157Z,6.40
2019-02-02T00:47:09.523Z,6.50
2019-02-02T00:49:37.145Z,6.27
2019-02-02T00:52:05.009Z,6.40
2019-02-02T00:54:32.441Z,6.37
2019-02-02T00:57:00.053Z,6.60
2019-02-02T00:59:28.167Z,6.47
2019-02-02T01:01:55.674Z,6.03
2019-02-02T01:04:23.241Z,6.57
2019-02-02T01:06:50.868Z,6.93
2019-02-02T01:09:21.546Z,6.33
2019-02-02T01:11:49.109Z,7.60
2019-02-02T01:14:16.651Z,6.20
2019-02-02T01:16:44.147Z,5.90
2019-02-02T01:19:11.578Z,6.63
2019-02-02T01:21:39.356Z,6.27
2019-02-02T01:24:07.157Z,6.33
2019-02-02T01:26:34.616Z,6.43
2019-02-02T01:29:02.596Z,5.70
2019-02-02T01:31:30.293Z,6.30
2019-02-02T01:33:58.075Z,5.83
2019-02-02T01:36:25.545Z,6.13
2019-02-02T01:38:53.586Z,6.33
2019-02-02T01:41:20.931Z,6.30
2019-02-02T01:43:48.340Z,6.07
2019-02-02T01:46:16.711Z,5.67
2019-02-02T01:48:44.285Z,5.90
2019-02-02T01:51:12.059Z,6.40
2019-02-02T01:53:39.553Z,6.83
2019-02-02T01:56:07.082Z,6.73
2019-02-02T01:58:35.554Z,7.43
2019-02-02T02:01:04.008Z,7.43
2019-02-02T02:03:31.638Z,8.47
2019-02-02T02:05:59.024Z,6.40
2019-02-02T02:08:26.438Z,6.27
2019-02-02T02:10:54.259Z,7.30
2019-02-02T02:13:21.635Z,5.73
2019-02-02T02:15:49.701Z,6.53
2019-02-02T02:18:17.576Z,6.27
2019-02-02T02:20:45.308Z,6.03
2019-02-02T02:23:13.549Z,7.50
2019-02-02T02:25:40.893Z,6.47
2019-02-02T02:28:08.466Z,6.47
2019-02-02T02:30:36.343Z,6.67
2019-02-02T02:33:03.969Z,6.57
2019-02-02T02:35:31.753Z,7.60
2019-02-02T02:38:00.288Z,7.87
2019-02-02T02:40:27.683Z,7.47
2019-02-02T02:42:55.480Z,7.93
2019-02-02T02:45:23.536Z,8.80
2019-02-02T02:47:51.175Z,8.63
2019-02-02T02:50:19.331Z,8.50
2019-02-02T02:52:47.186Z,8.13
2019-02-02T02:55:15.970Z,9.63
2019-02-02T02:57:43.652Z,9.83
2019-02-02T03:00:14.203Z,8.93
2019-02-02T03:02:41.833Z,10.43
2019-02-02T03:05:09.917Z,8.27
2019-02-02T03:07:37.538Z,8.97
2019-02-02T03:10:07.277Z,8.53
2019-02-02T03:12:35.182Z,10.13
2019-02-02T03:15:04.124Z,9.40
2019-02-02T03:17:31.530Z,8.97
2019-02-02T03:19:59.552Z,8.97
2019-02-02T03:22:27.668Z,8.43
2019-02-02T03:24:58.463Z,8.57
2019-02-02T03:27:26.586Z,8.57
2019-02-02T03:29:54.707Z,9.73
2019-02-02T03:32:23.060Z,8.43
2019-02-02T03:34:51.144Z,8.70
2019-02-02T03:37:19.057Z,8.97
2019-02-02T03:39:47.227Z,8.73
2019-02-02T03:42:14.851Z,9.13
2019-02-02T03:44:42.564Z,9.90
2019-02-02T03:47:10.312Z,10.20
2019-02-02T03:49:37.680Z,9.63
2019-02-02T03:52:05.461Z,8.50
2019-02-02T03:54:33.165Z,10.73
2019-02-02T03:57:00.832Z,11.43
2019-02-02T03:59:28.197Z,9.47
2019-02-02T04:01:55.950Z,10.40
2019-02-02T04:04:23.575Z,9.27
2019-02-02T04:06:50.956Z,10.10
2019-02-02T04:09:18.979Z,10.03
2019-02-02T04:11:46.843Z,10.33
2019-02-02T04:14:14.597Z,10.80
2019-02-02T04:16:42.098Z,10.13
2019-02-02T04:19:10.085Z,10.93
2019-02-02T04:21:38.105Z,10.47
2019-02-02T04:24:05.610Z,11.50
2019-02-02T04:26:33.474Z,10.90
2019-02-02T04:29:01.708Z,11.37
2019-02-02T04:31:31.173Z,10.10
2019-02-02T04:33:58.492Z,10.93
2019-02-02T04:36:26.362Z,10.57
2019-02-02T04:38:54.199Z,9.93
2019-02-02T04:41:21.880Z,11.00
2019-02-02T04:43:50.016Z,11.13
2019-02-02T04:46:17.379Z,10.43
2019-02-02T04:48:45.953Z,11.20
2019-02-02T04:51:13.963Z,10.53
2019-02-02T04:53:41.688Z,10.40
2019-02-02T04:56:09.239Z,11.43
2019-02-02T04:58:36.555Z,9.47
2019-02-02T05:01:03.896Z,9.27
2019-02-02T05:03:31.464Z,8.97
2019-02-02T05:05:58.895Z,9.50
2019-02-02T05:08:26.725Z,9.80
2019-02-02T05:10:54.396Z,11.03
2019-02-02T05:13:21.911Z,9.43
2019-02-02T05:15:51.414Z,7.90
2019-02-02T05:18:19.658Z,10.40
2019-02-02T05:20:47.063Z,9.53
2019-02-02T05:23:14.671Z,9.27
2019-02-02T05:25:42.441Z,8.40
2019-02-02T05:28:10.017Z,8.90
2019-02-02T05:30:37.745Z,9.13
2019-02-02T05:33:05.354Z,9.17
2019-02-02T05:35:33.461Z,9.13
2019-02-02T05:38:01.034Z,9.50
2019-02-02T05:40:29.133Z,8.60
2019-02-02T05:42:56.588Z,10.53
2019-02-02T05:45:24.391Z,9.70
2019-02-02T05:47:52.094Z,9.90
2019-02-02T05:50:21.103Z,8.60
2019-02-02T05:52:48.717Z,10.67
2019-02-02T05:55:16.566Z,9.33
2019-02-02T05:57:44.622Z,9.40
2019-02-02T06:00:16.951Z,20.43
2019-02-02T06:02:44.836Z,15.90
2019-02-02T06:05:12.753Z,12.90
2019-02-02T06:07:40.778Z,11.77
2019-02-02T06:10:10.536Z,10.13
2019-02-02T06:12:38.478Z,10.37
2019-02-02T06:15:06.848Z,10.17
2019-02-02T06:17:34.871Z,10.77
2019-02-02T06:20:02.914Z,10.23
2019-02-02T06:22:30.716Z,10.40
2019-02-02T06:24:58.263Z,9.23
2019-02-02T06:27:25.720Z,11.20
2019-02-02T06:30:03.753Z,10.73
2019-02-02T06:32:23.761Z,10.80
2019-02-02T06:34:51.915Z,11.10
2019-02-02T06:37:19.632Z,10.90
2019-02-02T06:39:47.767Z,12.40
2019-02-02T06:42:15.412Z,15.93
2019-02-02T06:44:43.288Z,15.23
2019-02-02T06:47:10.888Z,13.00
2019-02-02T06:49:39.108Z,12.37
2019-02-02T06:52:07.425Z,12.90
2019-02-02T06:54:35.633Z,11.97
2019-02-02T06:57:03.450Z,10.90
2019-02-02T06:59:31.004Z,11.87
2019-02-02T07:01:59.649Z,11.73
2019-02-02T07:04:27.619Z,12.20
2019-02-02T07:06:56.021Z,11.57
2019-02-02T07:09:24.107Z,10.93
2019-02-02T07:11:51.981Z,13.77
2019-02-02T07:14:19.747Z,13.67
2019-02-02T07:16:47.905Z,13.27
2019-02-02T07:19:15.778Z,12.63
2019-02-02T07:21:44.240Z,13.13
2019-02-02T07:24:12.032Z,11.50
2019-02-02T07:26:40.116Z,11.50
2019-02-02T07:29:08.131Z,12.63
2019-02-02T07:31:37.025Z,11.17
2019-02-02T07:34:07.185Z,11.63
2019-02-02T07:36:35.031Z,11.87
2019-02-02T07:39:05.169Z,12.53
2019-02-02T07:41:33.707Z,16.33
2019-02-02T07:44:01.474Z,15.23
2019-02-02T07:46:29.850Z,13.70
2019-02-02T07:48:58.422Z,13.37
2019-02-02T07:51:26.112Z,13.20
2019-02-02T07:53:56.956Z,12.07
2019-02-02T07:56:25.086Z,12.93
2019-02-02T07:58:53.031Z,13.17
2019-02-02T08:01:21.578Z,13.50
2019-02-02T08:03:49.776Z,13.30
2019-02-02T08:06:17.733Z,13.87
2019-02-02T08:08:45.585Z,12.37
2019-02-02T08:11:13.950Z,12.50
2019-02-02T08:13:42.168Z,13.17
2019-02-02T08:16:10.450Z,15.77
2019-02-02T08:18:38.492Z,13.50
2019-02-02T08:21:06.235Z,14.80
2019-02-02T08:23:34.148Z,14.27
2019-02-02T08:26:02.190Z,13.50
2019-02-02T08:28:30.138Z,15.13
2019-02-02T08:30:57.456Z,17.63
2019-02-02T08:33:25.275Z,65.57
2019-02-02T08:35:53.174Z,36.90
2019-02-02T08:38:24.060Z,23.17
2019-02-02T08:40:51.839Z,19.23
2019-02-02T08:43:19.908Z,18.37
2019-02-02T08:45:47.867Z,17.03
2019-02-02T08:48:17.060Z,17.20
2019-02-02T08:50:45.652Z,17.70
2019-02-02T08:53:13.525Z,17.03
2019-02-02T08:55:41.272Z,16.90
2019-02-02T08:58:09.065Z,18.43
2019-02-02T09:00:38.351Z,18.83
2019-02-02T09:03:05.995Z,18.73
2019-02-02T09:05:34.258Z,20.20
2019-02-02T09:08:02.376Z,17.93
2019-02-02T09:10:30.799Z,19.37
2019-02-02T09:12:59.436Z,19.13
2019-02-02T09:15:27.260Z,17.47
2019-02-02T09:17:55.210Z,16.87
2019-02-02T09:20:23.126Z,19.73
2019-02-02T09:23:02.620Z,20.33
2019-02-02T09:25:20.652Z,19.37
2019-02-02T09:27:48.605Z,18.97
2019-02-02T09:30:22.186Z,19.20
2019-02-02T09:32:53.750Z,18.13
2019-02-02T09:35:22.426Z,18.33
2019-02-02T09:37:50.241Z,18.80
2019-02-02T09:40:19.527Z,19.80
2019-02-02T09:42:47.453Z,19.63
2019-02-02T09:45:16.266Z,19.00
2019-02-02T09:47:44.919Z,18.30
2019-02-02T09:50:15.025Z,17.80
2019-02-02T09:52:43.142Z,22.77
2019-02-02T09:55:13.049Z,26.40
2019-02-02T09:57:40.805Z,20.93
2019-02-02T10:00:12.603Z,22.23
2019-02-02T10:02:40.716Z,20.93
2019-02-02T10:05:08.673Z,21.70
2019-02-02T10:07:36.573Z,21.20
2019-02-02T10:10:06.473Z,20.23
2019-02-02T10:12:34.214Z,20.80
2019-02-02T10:15:01.909Z,19.50
2019-02-02T10:17:30.200Z,21.23
2019-02-02T10:19:57.688Z,22.83
2019-02-02T10:22:25.663Z,21.47
2019-02-02T10:24:53.547Z,21.97
2019-02-02T10:27:24.410Z,21.50
2019-02-02T10:29:52.119Z,22.33
2019-02-02T10:32:19.642Z,23.67
2019-02-02T10:34:47.127Z,24.07
2019-02-02T10:37:15.287Z,22.03
2019-02-02T10:39:43.241Z,22.30
2019-02-02T10:42:11.341Z,22.73
2019-02-02T10:44:38.919Z,20.87
2019-02-02T10:47:06.809Z,29.30
2019-02-02T10:49:35.082Z,32.20
2019-02-02T10:52:02.542Z,24.10
2019-02-02T10:54:30.659Z,22.40
2019-02-02T10:56:58.502Z,21.30
2019-02-02T10:59:26.555Z,20.57
2019-02-02T11:01:55.571Z,19.87
2019-02-02T11:04:23.285Z,22.00
2019-02-02T11:06:51.919Z,19.40
2019-02-02T11:09:20.602Z,21.30
2019-02-02T11:11:48.674Z,21.87
2019-02-02T11:14:16.439Z,21.83
2019-02-02T11:16:46.956Z,22.40
2019-02-02T11:19:15.432Z,22.57
2019-02-02T11:21:43.592Z,21.77
2019-02-02T11:24:11.846Z,21.77
2019-02-02T11:26:39.376Z,19.43
2019-02-02T11:29:07.197Z,19.17
2019-02-02T11:31:34.922Z,21.80
2019-02-02T11:34:03.895Z,21.97
2019-02-02T11:36:32.489Z,22.70
2019-02-02T11:39:02.770Z,28.00
2019-02-02T11:41:30.766Z,21.70
2019-02-02T11:43:58.712Z,21.53
2019-02-02T11:46:26.609Z,18.60
2019-02-02T11:48:54.678Z,18.60
2019-02-02T11:51:22.524Z,18.97
2019-02-02T11:53:50.215Z,18.00
2019-02-02T11:56:18.159Z,18.17
2019-02-02T11:58:45.746Z,20.10
2019-02-02T12:01:13.422Z,17.70
2019-02-02T12:03:41.421Z,18.60
2019-02-02T12:06:09.235Z,17.87
2019-02-02T12:08:37.108Z,18.30
2019-02-02T12:11:05.223Z,19.20
2019-02-02T12:13:34.451Z,18.30
2019-02-02T12:16:02.703Z,18.30
2019-02-02T12:18:31.242Z,18.80
2019-02-02T12:20:59.080Z,19.50
2019-02-02T12:23:26.765Z,19.20
2019-02-02T12:25:54.971Z,19.63
2019-02-02T12:28:22.979Z,18.80
2019-02-02T12:30:50.648Z,18.93
2019-02-02T12:33:18.578Z,19.83
2019-02-02T12:35:46.219Z,19.17
2019-02-02T12:38:13.930Z,18.90
2019-02-02T12:40:41.890Z,20.33
2019-02-02T12:43:11.623Z,19.70
2019-02-02T12:45:45.122Z,19.90
2019-02-02T12:48:13.221Z,22.13
2019-02-02T12:50:41.998Z,20.50
2019-02-02T12:53:09.626Z,21.10
2019-02-02T12:55:37.740Z,21.97
2019-02-02T12:58:06.041Z,22.03
2019-02-02T13:00:33.634Z,22.17
2019-02-02T13:03:01.388Z,23.17
2019-02-02T13:05:29.581Z,21.27
2019-02-02T13:08:00.385Z,21.67
2019-02-02T13:10:28.288Z,22.50
2019-02-02T13:12:56.296Z,24.00
2019-02-02T13:15:25.148Z,22.67
2019-02-02T13:17:53.019Z,22.60
2019-02-02T13:20:21.496Z,22.80
2019-02-02T13:22:49.675Z,24.83
2019-02-02T13:25:18.868Z,23.10
2019-02-02T13:27:47.137Z,22.17
2019-02-02T13:30:20.834Z,26.37
2019-02-02T13:32:50.085Z,24.20
2019-02-02T13:35:18.959Z,24.30
2019-02-02T13:37:46.938Z,25.00
2019-02-02T13:40:16.641Z,25.73
2019-02-02T13:42:46.646Z,24.07
2019-02-02T13:45:15.339Z,23.23
2019-02-02T13:47:43.482Z,25.30
2019-02-02T13:50:12.907Z,24.80
2019-02-02T13:52:41.500Z,26.00
2019-02-02T13:55:09.720Z,27.90
2019-02-02T13:57:46.765Z,26.67
2019-02-02T14:00:17.239Z,26.30
2019-02-02T14:02:45.202Z,24.37
2019-02-02T14:05:14.220Z,25.87
2019-02-02T14:07:42.156Z,25.13
2019-02-02T14:10:12.632Z,23.63
2019-02-02T14:12:40.575Z,24.17
2019-02-02T14:15:09.592Z,23.60
2019-02-02T14:17:37.533Z,23.77
2019-02-02T14:20:05.830Z,31.13
2019-02-02T14:22:33.923Z,27.30
2019-02-02T14:25:02.268Z,25.20
2019-02-02T14:27:30.114Z,24.20
2019-02-02T14:29:59.754Z,23.97
2019-02-02T14:32:28.021Z,23.80
2019-02-02T14:34:55.897Z,26.53
2019-02-02T14:37:23.918Z,25.90
2019-02-02T14:39:51.515Z,24.73
2019-02-02T14:42:19.819Z,25.83
2019-02-02T14:44:47.971Z,24.07
2019-02-02T14:47:18.553Z,24.10
2019-02-02T14:49:46.452Z,25.87
2019-02-02T14:52:14.419Z,25.93
2019-02-02T14:54:42.641Z,26.70
2019-02-02T14:57:10.166Z,25.37
2019-02-02T14:59:37.670Z,25.80
2019-02-02T15:02:05.744Z,25.67
2019-02-02T15:04:33.749Z,27.93
2019-02-02T15:07:02.059Z,24.23
2019-02-02T15:09:29.998Z,23.90
2019-02-02T15:11:57.613Z,26.70
2019-02-02T15:14:25.779Z,24.27
2019-02-02T15:16:53.255Z,22.50
2019-02-02T15:19:21.390Z,23.90
2019-02-02T15:21:49.730Z,23.47
2019-02-02T15:24:20.262Z,39.73
2019-02-02T15:26:48.575Z,45.43
2019-02-02T15:29:16.915Z,32.53
2019-02-02T15:31:44.734Z,26.43
2019-02-02T15:34:13.505Z,25.03
2019-02-02T15:36:41.047Z,26.77
2019-02-02T15:39:09.424Z,24.63
2019-02-02T15:41:38.153Z,26.60
2019-02-02T15:44:05.811Z,29.80
2019-02-02T15:46:34.024Z,27.70
2019-02-02T15:49:01.906Z,27.20
2019-02-02T15:51:40.106Z,29.80
2019-02-02T15:54:00.092Z,26.80
2019-02-02T15:56:27.749Z,28.30
2019-02-02T15:58:55.504Z,27.53
2019-02-02T16:01:23.450Z,25.53
2019-02-02T16:03:54.291Z,27.80
2019-02-02T16:06:22.012Z,24.80
2019-02-02T16:08:49.862Z,26.50
2019-02-02T16:11:17.752Z,27.03
2019-02-02T16:13:46.455Z,29.20
2019-02-02T16:16:14.382Z,28.90
2019-02-02T16:18:43.482Z,29.17
2019-02-02T16:21:11.483Z,29.57
2019-02-02T16:23:39.330Z,29.93
2019-02-02T16:26:07.630Z,27.23
2019-02-02T16:28:37.297Z,30.77
2019-02-02T16:31:05.316Z,30.37
2019-02-02T16:33:33.097Z,49.87
2019-02-02T16:36:00.834Z,39.90
2019-02-02T16:38:28.783Z,32.23
2019-02-02T16:40:56.928Z,28.80
2019-02-02T16:43:24.939Z,27.80
2019-02-02T16:45:53.090Z,27.53
2019-02-02T16:48:21.615Z,29.43
2019-02-02T16:50:49.616Z,27.83
2019-02-02T16:53:17.446Z,28.80
2019-02-02T16:55:45.058Z,27.70
2019-02-02T16:58:12.854Z,27.10
2019-02-02T17:00:41.118Z,28.17
2019-02-02T17:03:09.252Z,26.03
2019-02-02T17:05:36.943Z,25.80
2019-02-02T17:08:05.286Z,25.30
2019-02-02T17:10:34.719Z,27.50
2019-02-02T17:13:06.215Z,26.90
2019-02-02T17:15:33.920Z,28.50
2019-02-02T17:18:07.905Z,25.67
2019-02-02T17:20:40.761Z,25.77
2019-02-02T17:23:08.538Z,26.60
2019-02-02T17:25:36.947Z,25.13
2019-02-02T17:28:05.270Z,24.47
2019-02-02T17:30:33.709Z,24.63
2019-02-02T17:33:02.580Z,25.30
2019-02-02T17:35:30.772Z,23.47
2019-02-02T17:37:58.449Z,26.63
2019-02-02T17:40:26.559Z,27.03
2019-02-02T17:42:54.265Z,28.40
2019-02-02T17:45:22.031Z,24.77
2019-02-02T17:47:49.798Z,27.50
2019-02-02T17:50:19.005Z,28.60
2019-02-02T17:52:46.829Z,28.97
2019-02-02T17:55:14.846Z,27.63
2019-02-02T17:57:42.579Z,28.77
2019-02-02T18:00:13.302Z,27.70
2019-02-02T18:02:40.938Z,28.93
2019-02-02T18:05:08.794Z,39.07
2019-02-02T18:07:36.228Z,36.53
2019-02-02T18:10:05.526Z,35.07
2019-02-02T18:12:33.221Z,31.17
2019-02-02T18:15:03.799Z,28.57
2019-02-02T18:17:31.707Z,30.33
2019-02-02T18:19:59.702Z,34.40
2019-02-02T18:22:27.952Z,32.60
2019-02-02T18:24:55.598Z,30.53
2019-02-02T18:27:23.257Z,31.63
2019-02-02T18:29:51.428Z,31.47
2019-02-02T18:32:19.056Z,29.80
2019-02-02T18:34:51.196Z,30.63
2019-02-02T18:37:17.543Z,29.63
2019-02-02T18:39:45.092Z,28.27
2019-02-02T18:42:13.499Z,32.67
2019-02-02T18:44:41.304Z,30.57
2019-02-02T18:47:08.819Z,30.80
2019-02-02T18:49:36.749Z,32.67
2019-02-02T18:52:13.508Z,31.20
2019-02-02T18:54:41.336Z,32.53
2019-02-02T18:57:09.930Z,32.90
2019-02-02T18:59:37.881Z,32.23
2019-02-02T19:02:05.907Z,33.93
2019-02-02T19:04:33.758Z,33.40
2019-02-02T19:07:01.462Z,31.97
2019-02-02T19:09:28.768Z,28.50
2019-02-02T19:11:59.490Z,31.80
2019-02-02T19:14:27.210Z,31.60
2019-02-02T19:17:01.101Z,30.57
2019-02-02T19:19:24.561Z,31.50
2019-02-02T19:21:52.744Z,31.80
2019-02-02T19:24:20.327Z,31.43
2019-02-02T19:26:48.523Z,54.63
2019-02-02T19:29:15.921Z,42.63
2019-02-02T19:31:44.047Z,30.03
2019-02-02T19:34:12.434Z,30.93
2019-02-02T19:36:40.650Z,27.90
2019-02-02T19:39:08.980Z,31.20
2019-02-02T19:41:37.302Z,28.37
2019-02-02T19:44:05.101Z,27.57
2019-02-02T19:46:32.657Z,27.00
2019-02-02T19:49:00.453Z,28.50
2019-02-02T19:51:27.976Z,29.20
2019-02-02T19:53:56.251Z,30.40
2019-02-02T19:56:23.896Z,29.00
2019-02-02T19:58:51.615Z,29.60
2019-02-02T20:01:19.884Z,27.33
2019-02-02T20:03:47.611Z,30.03
2019-02-02T20:06:15.097Z,29.20
2019-02-02T20:08:42.900Z,31.07
2019-02-02T20:11:11.153Z,29.33
2019-02-02T20:13:39.781Z,29.13
2019-02-02T20:16:07.458Z,28.63
2019-02-02T20:18:35.292Z,31.00
2019-02-02T20:21:03.373Z,28.47
2019-02-02T20:23:31.230Z,28.50
2019-02-02T20:25:59.236Z,25.50
2019-02-02T20:28:27.095Z,27.00
2019-02-02T20:30:55.290Z,26.60
2019-02-02T20:33:23.127Z,26.00
2019-02-02T20:35:51.134Z,25.40
2019-02-02T20:38:19.002Z,26.90
2019-02-02T20:40:46.999Z,26.60
2019-02-02T20:43:14.871Z,28.43
2019-02-02T20:45:42.580Z,27.70
2019-02-02T20:48:10.078Z,26.50
2019-02-02T20:50:38.583Z,29.10
2019-02-02T20:53:06.430Z,25.37
2019-02-02T20:55:37.090Z,27.50
2019-02-02T20:58:06.213Z,24.90
2019-02-02T21:00:34.761Z,26.33
2019-02-02T21:03:02.460Z,23.07
2019-02-02T21:05:32.055Z,25.63
2019-02-02T21:08:00.634Z,23.43
2019-02-02T21:10:28.673Z,23.60
2019-02-02T21:12:57.416Z,25.53
2019-02-02T21:15:25.330Z,24.57
2019-02-02T21:17:53.046Z,96.57
2019-02-02T21:20:22.920Z,40.60
2019-02-02T21:22:51.124Z,30.43
2019-02-02T21:25:19.221Z,30.40
2019-02-02T21:27:47.346Z,28.13
2019-02-02T21:30:41.201Z,27.83
2019-02-02T21:33:08.767Z,30.87
2019-02-02T21:35:36.325Z,27.57
2019-02-02T21:38:04.508Z,26.43
2019-02-02T21:40:33.021Z,29.00
2019-02-02T21:43:00.857Z,28.73
2019-02-02T21:45:28.389Z,28.00
2019-02-02T21:47:55.983Z,29.23
2019-02-02T21:50:23.769Z,29.97
2019-02-02T21:52:51.346Z,29.07
2019-02-02T21:55:20.997Z,27.97
2019-02-02T21:57:48.434Z,28.00
2019-02-02T22:00:39.493Z,29.27
2019-02-02T22:03:07.377Z,25.90
2019-02-02T22:05:35.230Z,26.63
2019-02-02T22:08:03.415Z,27.93
2019-02-02T22:10:30.902Z,29.53
2019-02-02T22:12:58.888Z,30.30
2019-02-02T22:15:26.378Z,30.50
2019-02-02T22:17:53.692Z,29.17
2019-02-02T22:20:21.828Z,30.90
2019-02-02T22:22:50.410Z,33.17
2019-02-02T22:25:23.522Z,32.43
2019-02-02T22:27:52.064Z,31.27
2019-02-02T22:30:24.430Z,30.80
2019-02-02T22:32:52.257Z,34.40
2019-02-02T22:35:19.580Z,29.80
2019-02-02T22:37:48.096Z,32.00
2019-02-02T22:40:17.451Z,31.00
2019-02-02T22:42:45.253Z,30.67
2019-02-02T22:45:14.522Z,26.47
2019-02-02T22:47:42.193Z,26.90
2019-02-02T22:50:12.214Z,27.43
2019-02-02T22:52:39.746Z,27.53
2019-02-02T22:55:08.313Z,27.80
2019-02-02T22:57:35.740Z,27.87
2019-02-02T23:00:56.622Z,30.37
2019-02-02T23:03:38.878Z,28.80
2019-02-02T23:06:51.349Z,27.23
2019-02-02T23:09:57.715Z,26.93
2019-02-02T23:12:59.652Z,27.53
2019-02-02T23:16:07.993Z,30.33
2019-02-02T23:18:35.426Z,29.57
2019-02-02T23:21:04.894Z,28.73
2019-02-02T23:23:32.510Z,28.30
2019-02-02T23:26:00.431Z,29.60
2019-02-02T23:28:28.295Z,28.43
2019-02-02T23:30:56.116Z,30.27
2019-02-02T23:33:30.374Z,29.30
2019-02-02T23:35:58.524Z,27.70
2019-02-02T23:38:26.477Z,27.50
2019-02-02T23:40:54.807Z,27.03
2019-02-02T23:43:22.811Z,26.43
2019-02-02T23:45:50.314Z,24.90
2019-02-02T23:48:18.211Z,27.77
2019-02-02T23:50:46.336Z,29.23
2019-02-02T23:53:13.995Z,29.00
2019-02-02T23:55:41.615Z,27.30
2019-02-02T23:58:09.722Z,27.50
